createdAt,value
2023-01-19T00:01:36.542Z,29.15
2023-01-19T00:04:03.416Z,28.17
2023-01-19T00:06:31.416Z,27.75
2023-01-19T00:08:58.296Z,27.10
2023-01-19T00:11:25.163Z,28.23
2023-01-19T00:13:51.954Z,30.20
2023-01-19T00:16:22.983Z,33.83
2023-01-19T00:18:53.330Z,27.88
2023-01-19T00:21:21.821Z,29.23
2023-01-19T00:23:51.096Z,32.30
2023-01-19T00:26:18.908Z,27.75
2023-01-19T00:28:45.979Z,30.80
2023-01-19T00:31:12.946Z,30.15
2023-01-19T00:33:39.821Z,30.35
2023-01-19T00:36:07.435Z,31.60
2023-01-19T00:38:34.063Z,29.00
2023-01-19T00:41:00.704Z,37.35
2023-01-19T00:43:28.148Z,32.33
2023-01-19T00:45:54.899Z,34.70
2023-01-19T00:48:21.846Z,32.00
2023-01-19T00:50:49.206Z,31.67
2023-01-19T00:53:16.106Z,28.27
2023-01-19T00:55:43.203Z,31.30
2023-01-19T00:58:09.908Z,33.70
2023-01-19T01:00:36.835Z,33.13
2023-01-19T01:03:04.087Z,33.30
2023-01-19T01:05:31.127Z,35.35
2023-01-19T01:07:58.083Z,20.83
2023-01-19T01:10:29.593Z,34.08
2023-01-19T01:12:58.693Z,32.63
2023-01-19T01:15:28.104Z,34.05
2023-01-19T01:17:56.085Z,28.35
2023-01-19T01:20:30.229Z,30.20
2023-01-19T01:22:58.610Z,36.70
2023-01-19T01:25:28.597Z,20.30
2023-01-19T01:28:02.985Z,27.27
2023-01-19T01:30:29.818Z,32.20
2023-01-19T01:32:56.690Z,32.33
2023-01-19T01:35:24.604Z,28.05
2023-01-19T01:37:51.253Z,26.63
2023-01-19T01:40:20.159Z,36.00
2023-01-19T01:42:47.098Z,31.80
2023-01-19T01:45:38.433Z,35.40
2023-01-19T01:48:16.631Z,34.42
2023-01-19T01:51:39.254Z,31.27
2023-01-19T01:54:35.340Z,28.52
2023-01-19T01:57:12.256Z,23.33
2023-01-19T01:59:48.579Z,30.88
2023-01-19T02:02:44.415Z,33.00
2023-01-19T02:05:19.935Z,27.20
2023-01-19T02:08:15.264Z,27.10
2023-01-19T02:11:03.173Z,30.40
2023-01-19T02:13:34.099Z,30.65
2023-01-19T02:16:07.961Z,29.77
2023-01-19T02:18:37.222Z,27.55
2023-01-19T02:21:39.822Z,25.75
2023-01-19T02:24:07.773Z,26.17
2023-01-19T02:26:43.075Z,26.27
2023-01-19T02:29:24.939Z,30.73
2023-01-19T02:31:52.815Z,27.67
2023-01-19T02:34:22.734Z,29.17
2023-01-19T02:37:00.224Z,28.90
2023-01-19T02:39:52.488Z,25.83
2023-01-19T02:42:29.714Z,27.65
2023-01-19T02:44:58.259Z,24.48
2023-01-19T02:47:26.661Z,29.58
2023-01-19T02:50:01.084Z,30.70
2023-01-19T02:52:28.603Z,29.30
2023-01-19T02:55:27.991Z,30.48
2023-01-19T02:58:15.092Z,25.13
2023-01-19T03:01:27.798Z,28.00
2023-01-19T03:04:24.671Z,26.33
2023-01-19T03:07:13.313Z,22.50
2023-01-19T03:10:57.801Z,20.70
2023-01-19T03:13:54.017Z,27.80
2023-01-19T03:16:51.221Z,27.60
2023-01-19T03:19:27.541Z,26.95
2023-01-19T03:22:13.727Z,27.23
2023-01-19T03:24:48.719Z,29.45
2023-01-19T03:27:28.480Z,30.23
2023-01-19T03:30:11.086Z,30.38
2023-01-19T03:32:50.018Z,28.40
2023-01-19T03:35:23.542Z,26.90
2023-01-19T03:37:58.193Z,28.35
2023-01-19T03:40:32.646Z,27.80
2023-01-19T03:43:03.404Z,28.88
2023-01-19T03:45:39.605Z,32.38
2023-01-19T03:48:08.266Z,33.40
2023-01-19T03:50:35.550Z,35.88
2023-01-19T03:53:11.480Z,30.65
2023-01-19T03:55:44.944Z,32.05
2023-01-19T03:58:11.946Z,31.00
2023-01-19T04:00:43.288Z,30.90
2023-01-19T04:03:18.671Z,24.27
2023-01-19T04:05:59.845Z,30.38
2023-01-19T04:08:26.876Z,27.80
2023-01-19T04:10:54.097Z,25.52
2023-01-19T04:13:20.857Z,26.95
2023-01-19T04:15:47.792Z,27.52
2023-01-19T04:18:14.554Z,24.77
2023-01-19T04:20:41.667Z,35.10
2023-01-19T04:23:09.643Z,26.67
2023-01-19T04:25:41.610Z,28.85
2023-01-19T04:28:11.880Z,29.60
2023-01-19T04:30:38.804Z,28.63
2023-01-19T04:33:05.840Z,28.70
2023-01-19T04:35:34.214Z,27.40
2023-01-19T04:38:01.017Z,26.23
2023-01-19T04:40:37.938Z,23.98
2023-01-19T04:43:04.979Z,29.23
2023-01-19T04:45:31.763Z,24.15
2023-01-19T04:48:15.777Z,27.50
2023-01-19T04:50:43.826Z,29.10
2023-01-19T04:53:16.302Z,24.65
2023-01-19T04:55:57.834Z,29.35
2023-01-19T04:58:24.681Z,26.23
2023-01-19T05:00:53.152Z,27.55
2023-01-19T05:03:20.416Z,27.27
2023-01-19T05:05:56.780Z,26.38
2023-01-19T05:08:24.477Z,23.55
2023-01-19T05:11:12.468Z,31.05
2023-01-19T05:13:44.560Z,26.83
2023-01-19T05:16:12.036Z,27.70
2023-01-19T05:22:49.015Z,27.50
2023-01-19T05:25:16.482Z,19.65
2023-01-19T05:27:49.005Z,24.90
2023-01-19T05:30:22.980Z,19.65
2023-01-19T05:32:49.859Z,31.25
2023-01-19T05:35:27.752Z,17.25
2023-01-19T05:37:58.897Z,25.40
2023-01-19T05:40:25.880Z,29.48
2023-01-19T05:42:53.484Z,24.55
2023-01-19T05:45:20.223Z,14.73
2023-01-19T05:47:46.896Z,17.45
2023-01-19T05:50:14.733Z,28.88
2023-01-19T05:52:46.068Z,29.52
2023-01-19T07:47:55.820Z,34.70
2023-01-19T07:50:25.434Z,32.25
2023-01-19T07:52:53.612Z,35.83
2023-01-19T07:55:21.587Z,22.73
2023-01-19T07:57:51.991Z,34.90
2023-01-19T08:00:24.583Z,30.83
2023-01-19T08:02:53.742Z,31.60
2023-01-19T08:05:23.388Z,30.48
2023-01-19T08:07:52.640Z,30.45
2023-01-19T08:10:23.016Z,29.90
2023-01-19T08:12:52.822Z,32.83
2023-01-19T08:15:24.040Z,32.33
2023-01-19T08:18:05.865Z,28.55
2023-01-19T08:20:32.973Z,27.10
2023-01-19T08:23:00.357Z,26.42
2023-01-19T08:25:45.337Z,26.88
2023-01-19T08:28:16.285Z,23.27
2023-01-19T08:30:45.012Z,26.13
2023-01-19T08:33:14.974Z,25.80
2023-01-19T08:36:02.550Z,28.20
2023-01-19T08:38:29.244Z,26.48
2023-01-19T08:40:56.157Z,26.95
2023-01-19T08:43:25.426Z,27.17
2023-01-19T08:45:55.774Z,27.00
2023-01-19T08:48:24.834Z,27.75
2023-01-19T08:50:55.336Z,28.48
2023-01-19T08:53:28.402Z,32.08
2023-01-19T08:55:59.939Z,26.20
2023-01-19T08:58:27.715Z,32.15
2023-01-19T09:01:00.710Z,25.85
2023-01-19T09:05:55.620Z,31.45
2023-01-19T09:08:22.462Z,29.77
2023-01-19T09:10:51.772Z,30.30
2023-01-19T09:13:22.126Z,28.48
2023-01-19T09:15:49.990Z,31.55
2023-01-19T09:18:25.090Z,36.67
2023-01-19T09:20:58.049Z,23.02
2023-01-19T09:23:25.415Z,31.33
2023-01-19T09:26:04.713Z,26.30
2023-01-19T09:28:32.061Z,27.85
2023-01-19T09:30:59.388Z,26.13
2023-01-19T09:33:26.256Z,33.40
2023-01-19T09:35:55.429Z,40.25
2023-01-19T09:38:23.301Z,33.55
2023-01-19T09:41:24.635Z,33.83
2023-01-19T09:43:59.584Z,32.70
2023-01-19T09:46:42.134Z,32.03
2023-01-19T09:49:36.664Z,29.70
2023-01-19T09:52:04.001Z,33.72
2023-01-19T09:54:52.845Z,34.30
2023-01-19T09:57:25.502Z,29.63
2023-01-19T09:59:57.840Z,34.55
2023-01-19T10:03:15.797Z,32.53
2023-01-19T10:05:47.680Z,35.38
2023-01-19T10:08:42.509Z,35.92
2023-01-19T10:11:52.764Z,35.45
2023-01-19T10:14:43.064Z,34.72
2023-01-19T10:18:11.979Z,38.72
2023-01-19T10:20:58.600Z,33.50
2023-01-19T10:23:47.904Z,35.05
2023-01-19T10:26:36.345Z,32.00
2023-01-19T10:29:26.020Z,24.63
2023-01-19T10:32:12.632Z,32.35
2023-01-19T10:35:02.719Z,32.55
2023-01-19T10:37:38.022Z,28.10
2023-01-19T10:40:50.430Z,35.50
2023-01-19T10:43:46.059Z,37.72
2023-01-19T10:46:51.581Z,30.77
2023-01-19T10:50:21.160Z,29.05
2023-01-19T11:37:17.287Z,36.33
2023-01-19T13:49:21.212Z,29.15
2023-01-19T13:52:29.222Z,31.25
2023-01-19T13:55:03.461Z,23.58
2023-01-19T13:57:47.476Z,27.80
2023-01-19T14:00:28.647Z,24.80
2023-01-19T14:03:15.949Z,27.33
2023-01-19T14:05:54.803Z,22.48
2023-01-19T14:08:23.430Z,26.15
2023-01-19T14:11:02.343Z,23.27
2023-01-19T14:13:42.889Z,21.25
2023-01-19T14:16:18.098Z,23.00
2023-01-19T14:18:47.859Z,20.27
2023-01-19T14:21:15.758Z,22.38
2023-01-19T14:24:16.959Z,22.83
2023-01-19T14:26:54.675Z,19.00
2023-01-19T14:29:37.865Z,20.80
2023-01-19T14:32:09.780Z,18.75
2023-01-19T14:35:04.400Z,18.60
2023-01-19T14:37:38.102Z,13.88
2023-01-19T14:40:13.637Z,23.20
2023-01-19T14:43:02.701Z,18.73
2023-01-19T14:45:37.709Z,16.88
2023-01-19T14:48:19.173Z,16.38
2023-01-19T14:51:03.216Z,17.50
2023-01-19T14:53:38.708Z,20.77
2023-01-19T14:56:10.396Z,18.63
2023-01-19T14:58:37.214Z,19.40
2023-01-19T15:01:04.790Z,14.73
2023-01-19T15:03:44.772Z,15.70
2023-01-19T15:06:21.577Z,18.95
2023-01-19T15:08:50.226Z,18.88
2023-01-19T15:11:37.341Z,18.83
2023-01-19T15:14:06.654Z,19.10
2023-01-19T15:16:37.674Z,14.68
2023-01-19T15:19:04.514Z,17.23
2023-01-19T15:21:31.332Z,20.70
2023-01-19T15:23:58.584Z,17.23
2023-01-19T15:26:27.401Z,16.27
2023-01-19T15:29:00.099Z,18.95
2023-01-19T15:31:27.174Z,16.60
2023-01-19T15:34:00.259Z,16.73
2023-01-19T15:36:26.915Z,20.02
2023-01-19T15:38:53.587Z,17.98
2023-01-19T15:41:31.909Z,19.20
2023-01-19T15:43:59.604Z,14.98
2023-01-19T15:46:27.375Z,19.42
2023-01-19T15:48:54.615Z,18.33
2023-01-19T15:51:26.085Z,21.98
2023-01-19T15:53:54.817Z,17.52
2023-01-19T15:56:31.085Z,25.02
2023-01-19T15:58:59.316Z,15.43
2023-01-19T16:01:32.826Z,19.75
2023-01-19T16:04:03.619Z,19.98
2023-01-19T16:06:33.261Z,16.98
2023-01-19T16:09:01.366Z,18.30
2023-01-19T16:11:32.900Z,20.98
2023-01-19T16:14:00.418Z,24.92
2023-01-19T16:16:44.814Z,20.60
2023-01-19T16:19:15.720Z,23.35
2023-01-19T16:21:45.577Z,21.13
2023-01-19T16:24:12.244Z,21.63
2023-01-19T16:26:38.967Z,20.77
2023-01-19T16:29:10.397Z,17.63
2023-01-19T16:31:41.019Z,19.67
2023-01-19T16:34:09.933Z,18.33
2023-01-19T16:36:40.991Z,16.88
2023-01-19T16:39:16.478Z,17.50
2023-01-19T16:41:46.355Z,16.38
2023-01-19T16:44:16.303Z,18.50
2023-01-19T16:46:46.596Z,16.85
2023-01-19T16:49:19.560Z,16.70
2023-01-19T16:51:46.745Z,18.63
2023-01-19T16:54:23.185Z,16.40
2023-01-19T16:56:53.431Z,18.60
2023-01-19T16:59:22.246Z,20.38
2023-01-19T17:01:56.969Z,15.50
2023-01-19T17:04:24.652Z,15.75
2023-01-19T17:06:51.461Z,17.17
2023-01-19T17:09:21.751Z,24.42
2023-01-19T17:11:55.827Z,20.73
2023-01-19T17:14:22.591Z,14.73
2023-01-19T17:16:55.241Z,16.50
2023-01-19T17:19:26.783Z,20.67
2023-01-19T17:21:53.495Z,33.42
2023-01-19T17:35:15.095Z,18.02
2023-01-19T17:37:44.570Z,20.73
2023-01-19T17:42:53.018Z,16.60
2023-01-19T19:26:11.706Z,8.68
2023-01-19T19:28:43.380Z,8.10
2023-01-19T19:31:16.573Z,12.13
2023-01-19T19:39:14.329Z,11.70
2023-01-19T19:55:12.729Z,8.60
2023-01-19T20:35:36.131Z,6.07
2023-01-19T20:38:03.062Z,7.80
2023-01-19T20:40:29.766Z,7.88
2023-01-19T20:42:56.549Z,7.10
2023-01-19T20:45:23.209Z,5.97
2023-01-19T20:47:49.861Z,5.90
2023-01-19T20:50:17.032Z,7.10
2023-01-19T20:52:43.709Z,9.10
2023-01-19T20:55:10.680Z,6.78
2023-01-19T20:57:37.438Z,8.27
2023-01-19T21:00:05.287Z,6.60
2023-01-19T21:02:31.992Z,8.65
2023-01-19T21:04:58.705Z,6.55
2023-01-19T21:07:25.387Z,14.15
2023-01-19T21:09:52.025Z,5.28
2023-01-19T21:12:20.488Z,8.02
2023-01-19T21:14:47.262Z,5.40
2023-01-19T21:17:13.972Z,6.28
2023-01-19T21:19:43.087Z,5.80
2023-01-19T21:22:09.720Z,5.97
2023-01-19T21:24:39.536Z,5.28
2023-01-19T21:27:06.311Z,5.85
2023-01-19T21:29:32.992Z,6.40
2023-01-19T21:32:01.012Z,6.88
2023-01-19T21:34:27.666Z,7.18
2023-01-19T21:36:54.243Z,7.82
2023-01-19T21:39:21.019Z,6.97
2023-01-19T21:41:47.674Z,6.15
2023-01-19T21:44:14.764Z,6.65
2023-01-19T21:46:41.902Z,6.57
2023-01-19T21:49:18.439Z,6.53
2023-01-19T21:51:48.001Z,7.00
2023-01-19T21:54:15.131Z,7.97
2023-01-19T21:56:43.249Z,7.85
2023-01-19T21:59:14.864Z,7.20
2023-01-19T22:01:45.543Z,6.28
2023-01-19T22:04:12.706Z,6.47
2023-01-19T22:06:40.075Z,7.78
2023-01-19T22:09:09.508Z,6.15
2023-01-19T22:11:36.348Z,7.70
2023-01-19T22:14:03.158Z,7.82
2023-01-19T22:16:30.879Z,6.15
2023-01-19T22:19:01.915Z,6.30
2023-01-19T22:21:38.448Z,5.90
2023-01-19T22:24:06.172Z,6.13
2023-01-19T22:26:34.610Z,5.88
2023-01-19T22:29:04.503Z,7.63
2023-01-19T22:31:31.770Z,6.78
2023-01-19T22:33:59.178Z,7.05
2023-01-19T22:36:35.676Z,6.43
2023-01-19T22:39:11.732Z,7.72
2023-01-19T22:41:49.585Z,8.40
2023-01-19T22:44:21.875Z,6.82
2023-01-19T22:46:56.013Z,7.00
2023-01-19T22:49:22.875Z,7.82
2023-01-19T22:51:54.197Z,11.88
2023-01-19T22:54:22.967Z,9.60
2023-01-19T22:56:49.794Z,6.53
2023-01-19T22:59:16.461Z,6.35
2023-01-19T23:01:44.256Z,7.25
2023-01-19T23:04:15.943Z,6.90
2023-01-19T23:06:43.407Z,8.75
2023-01-19T23:09:14.684Z,11.00
2023-01-19T23:11:51.276Z,6.57
2023-01-19T23:14:22.227Z,5.95
2023-01-19T23:16:49.227Z,7.57
2023-01-19T23:19:20.661Z,6.15
2023-01-19T23:21:51.989Z,6.25
2023-01-19T23:24:19.198Z,6.53
2023-01-19T23:26:45.804Z,5.82
2023-01-19T23:29:17.949Z,5.32
2023-01-19T23:31:50.092Z,7.60
2023-01-19T23:34:17.467Z,10.27
2023-01-19T23:36:45.248Z,5.55
2023-01-19T23:39:21.136Z,9.40
2023-01-19T23:41:49.211Z,8.15
2023-01-19T23:44:17.328Z,10.10
2023-01-19T23:46:44.687Z,7.32
2023-01-19T23:49:13.030Z,9.20
2023-01-19T23:51:43.048Z,9.20
2023-01-19T23:54:09.897Z,8.63
2023-01-19T23:56:38.740Z,7.97
2023-01-19T23:59:15.732Z,9.10
